Time;durP1;ratioP1;P1;durP2;ratioP2;P2;SDS_P1;SDS_P2;PMS_P1;PMS_P2;Temp;Humidity;BMP_temperature;BMP_pressure;BME280_temperature;BME280_humidity;BME280_pressure;Samples;Min_cycle;Max_cycle;Signal;HPM_P1;HPM_P2
2023/04/28 00:00:03;;;;;;;0.57;0.57;;;6.20;99.90;;;;;;4403133;32;20106;-76
2023/04/28 00:02:28;;;;;;;0.40;0.40;;;6.20;99.90;;;;;;4401134;32;20069;-76
2023/04/28 00:04:54;;;;;;;4.40;1.87;;;6.20;99.90;;;;;;4403134;32;20089;-75
2023/04/28 00:07:20;;;;;;;0.70;0.70;;;6.20;99.90;;;;;;4401407;32;20069;-75
2023/04/28 00:09:45;;;;;;;0.50;0.50;;;6.30;99.90;;;;;;4403868;32;20066;-75
2023/04/28 00:12:11;;;;;;;0.50;0.50;;;6.30;99.90;;;;;;4404780;32;20094;-75
2023/04/28 00:14:36;;;;;;;0.43;0.43;;;6.30;99.90;;;;;;4404630;32;20533;-75
2023/04/28 00:17:02;;;;;;;0.40;0.40;;;6.30;99.90;;;;;;4402006;32;20093;-75
2023/04/28 00:19:27;;;;;;;5.30;1.10;;;6.30;99.90;;;;;;4403853;32;20093;-75
2023/04/28 00:21:53;;;;;;;1.17;1.10;;;6.20;99.90;;;;;;4406275;32;20074;-75
2023/04/28 00:24:19;;;;;;;0.55;0.55;;;6.20;99.90;;;;;;4404902;32;20086;-73
2023/04/28 00:26:44;;;;;;;0.40;0.40;;;6.20;99.90;;;;;;4400216;32;20085;-75
2023/04/28 00:29:10;;;;;;;0.32;0.32;;;6.30;99.90;;;;;;4405284;32;20462;-76
2023/04/28 00:31:35;;;;;;;0.50;0.50;;;6.30;99.90;;;;;;4406041;32;20050;-76
2023/04/28 00:34:01;;;;;;;0.50;0.50;;;6.30;99.90;;;;;;4406868;32;20091;-76
2023/04/28 00:36:30;;;;;;;0.80;0.80;;;6.30;99.90;;;;;;4404972;32;20489;-76
2023/04/28 00:38:56;;;;;;;2.83;1.55;;;6.20;99.90;;;;;;4403554;32;20089;-74
2023/04/28 00:41:22;;;;;;;1.23;1.10;;;6.20;99.90;;;;;;4401317;32;20118;-73
2023/04/28 00:43:48;;;;;;;2.60;0.62;;;6.20;99.90;;;;;;4406320;32;20476;-75
2023/04/28 00:46:21;;;;;;;1.00;1.00;;;6.20;99.90;;;;;;4402182;32;20073;-76
2023/04/28 00:48:48;;;;;;;0.40;0.40;;;6.30;99.90;;;;;;4406680;32;20066;-74
2023/04/28 00:51:13;;;;;;;0.52;0.52;;;6.30;99.90;;;;;;4406381;32;20090;-74
2023/04/28 00:53:39;;;;;;;0.50;0.50;;;6.30;99.90;;;;;;4406657;32;20117;-76
2023/04/28 00:56:05;;;;;;;1.90;0.47;;;6.30;99.90;;;;;;4407754;32;20090;-74
2023/04/28 00:58:33;;;;;;;3.08;0.90;;;6.30;99.90;;;;;;4404122;32;20085;-76
2023/04/28 01:01:03;;;;;;;10.00;0.82;;;6.20;99.90;;;;;;4406593;32;20062;-75
2023/04/28 01:03:29;;;;;;;0.40;0.40;;;6.10;99.90;;;;;;4404111;32;20492;-76
2023/04/28 01:05:55;;;;;;;1.27;1.12;;;6.10;99.90;;;;;;4406641;32;20094;-75
2023/04/28 01:08:28;;;;;;;1.70;0.77;;;6.10;99.90;;;;;;4401649;32;20097;-74
2023/04/28 01:10:54;;;;;;;0.65;0.65;;;6.10;99.90;;;;;;4403327;32;21240;-76
2023/04/28 01:13:19;;;;;;;3.50;1.05;;;6.00;99.90;;;;;;4405633;32;20078;-76
2023/04/28 01:15:45;;;;;;;1.80;0.80;;;6.00;99.90;;;;;;4402025;32;20098;-75
2023/04/28 01:18:11;;;;;;;5.68;0.85;;;5.90;99.90;;;;;;4403605;32;20065;-74
2023/04/28 01:20:36;;;;;;;3.25;1.33;;;5.80;99.90;;;;;;4405085;32;20196;-75
2023/04/28 01:23:02;;;;;;;0.60;0.60;;;5.90;99.90;;;;;;4405836;32;20377;-76
2023/04/28 01:25:27;;;;;;;1.15;0.93;;;5.90;99.90;;;;;;4405197;32;20070;-74
2023/04/28 01:27:53;;;;;;;0.95;0.77;;;5.90;99.90;;;;;;4403765;32;20079;-73
2023/04/28 01:30:18;;;;;;;0.37;0.37;;;6.00;99.90;;;;;;4403366;32;20561;-75
2023/04/28 01:32:44;;;;;;;0.50;0.50;;;6.00;99.90;;;;;;4402612;32;20124;-75
2023/04/28 01:35:09;;;;;;;0.35;0.35;;;6.10;99.90;;;;;;4404859;32;20765;-74
2023/04/28 01:37:35;;;;;;;0.50;0.50;;;6.10;99.90;;;;;;4403577;32;20085;-75
2023/04/28 01:40:00;;;;;;;0.62;0.62;;;6.00;99.90;;;;;;4402015;32;20134;-73
2023/04/28 01:42:26;;;;;;;0.40;0.40;;;6.00;99.90;;;;;;4401876;32;20058;-75
2023/04/28 01:44:51;;;;;;;0.47;0.47;;;5.90;99.90;;;;;;4402892;32;20101;-75
2023/04/28 01:47:17;;;;;;;0.82;0.82;;;5.90;99.90;;;;;;4403774;32;20070;-75
2023/04/28 01:49:43;;;;;;;3.65;1.05;;;5.80;99.90;;;;;;4405299;32;20069;-75
2023/04/28 01:52:09;;;;;;;0.55;0.55;;;5.80;99.90;;;;;;4406095;32;20490;-74
2023/04/28 01:54:34;;;;;;;0.40;0.40;;;5.90;99.90;;;;;;4406673;32;20081;-74
2023/04/28 01:57:01;;;;;;;0.37;0.37;;;5.90;99.90;;;;;;4403054;32;20234;-73
2023/04/28 01:59:27;;;;;;;0.40;0.40;;;5.90;99.90;;;;;;4403867;32;20169;-75
2023/04/28 02:01:52;;;;;;;2.75;1.27;;;6.00;99.90;;;;;;4403039;32;20099;-73
2023/04/28 02:04:18;;;;;;;1.25;0.55;;;6.00;99.90;;;;;;4407223;32;20065;-73
2023/04/28 02:06:43;;;;;;;0.73;0.73;;;6.00;99.90;;;;;;4404482;32;20064;-74
2023/04/28 02:09:09;;;;;;;0.73;0.73;;;6.00;99.90;;;;;;4407439;32;20086;-74
2023/04/28 02:11:34;;;;;;;0.88;0.82;;;6.00;99.90;;;;;;4403532;32;20125;-74
2023/04/28 02:14:00;;;;;;;0.40;0.40;;;6.10;99.90;;;;;;4402595;32;20070;-72
2023/04/28 02:16:25;;;;;;;0.43;0.43;;;6.10;99.90;;;;;;4404634;32;20073;-75
2023/04/28 02:18:50;;;;;;;0.62;0.62;;;6.10;99.90;;;;;;4402783;32;20109;-76
2023/04/28 02:21:16;;;;;;;0.50;0.50;;;6.00;99.90;;;;;;4405800;32;20063;-73
2023/04/28 02:23:41;;;;;;;0.75;0.50;;;6.00;99.90;;;;;;4405268;32;20066;-76
2023/04/28 02:26:07;;;;;;;0.50;0.50;;;6.00;99.90;;;;;;4402390;32;20146;-75
2023/04/28 02:28:33;;;;;;;0.43;0.43;;;6.10;99.90;;;;;;4405801;32;20102;-76
2023/04/28 02:31:08;;;;;;;0.40;0.40;;;6.10;99.90;;;;;;4412356;32;20715;-75
2023/04/28 02:33:34;;;;;;;1.55;1.05;;;6.10;99.90;;;;;;4411317;32;20077;-74
2023/04/28 02:36:00;;;;;;;0.47;0.47;;;6.10;99.90;;;;;;4411380;32;20062;-75
2023/04/28 02:38:26;;;;;;;3.92;1.65;;;6.10;99.90;;;;;;4413279;32;20078;-75
2023/04/28 02:41:00;;;;;;;0.88;0.88;;;6.20;99.90;;;;;;4411960;32;20061;-75
2023/04/28 02:43:27;;;;;;;3.65;1.02;;;6.30;99.90;;;;;;4413208;32;20099;-75
2023/04/28 02:45:53;;;;;;;3.53;1.05;;;6.20;99.90;;;;;;4413473;32;20096;-74
2023/04/28 02:48:18;;;;;;;0.88;0.88;;;6.20;99.90;;;;;;4413820;32;20109;-75
2023/04/28 02:50:45;;;;;;;0.50;0.50;;;6.20;99.90;;;;;;4412953;32;20069;-75
2023/04/28 02:53:11;;;;;;;1.08;1.00;;;6.20;99.90;;;;;;4412664;32;20107;-76
2023/04/28 02:55:36;;;;;;;0.40;0.40;;;6.20;99.90;;;;;;4414619;32;20082;-76
2023/04/28 02:58:02;;;;;;;13.00;1.02;;;6.20;99.90;;;;;;4413825;32;20093;-75
2023/04/28 03:00:28;;;;;;;0.80;0.80;;;6.30;99.90;;;;;;4413595;32;20512;-76
2023/04/28 03:02:53;;;;;;;0.50;0.50;;;6.20;99.90;;;;;;4412730;32;20073;-75
2023/04/28 03:05:19;;;;;;;3.45;0.90;;;6.20;99.90;;;;;;4411901;32;20095;-75
2023/04/28 03:07:45;;;;;;;0.75;0.75;;;6.20;99.90;;;;;;4411773;32;20086;-73
2023/04/28 03:10:10;;;;;;;0.40;0.40;;;6.10;99.90;;;;;;4413233;32;20325;-74
2023/04/28 03:12:36;;;;;;;0.60;0.60;;;6.10;99.90;;;;;;4414285;32;20560;-76
2023/04/28 03:15:01;;;;;;;2.05;1.50;;;6.10;99.90;;;;;;4412924;32;20141;-75
2023/04/28 03:17:27;;;;;;;6.00;2.67;;;6.20;99.90;;;;;;4413187;32;20917;-74
2023/04/28 03:19:52;;;;;;;0.40;0.40;;;6.10;99.90;;;;;;4413418;32;20202;-76
2023/04/28 03:22:18;;;;;;;0.80;0.80;;;6.20;99.90;;;;;;4412223;32;20073;-75
2023/04/28 03:24:43;;;;;;;0.60;0.60;;;6.20;99.90;;;;;;4411846;32;20120;-74
2023/04/28 03:27:09;;;;;;;0.55;0.55;;;6.20;99.90;;;;;;4412015;32;20073;-76
2023/04/28 03:29:34;;;;;;;0.65;0.60;;;6.20;99.90;;;;;;4413023;32;20089;-75
2023/04/28 03:32:01;;;;;;;6.37;2.12;;;6.20;99.90;;;;;;4412657;32;20184;-75
2023/04/28 03:34:26;;;;;;;0.52;0.52;;;6.20;99.90;;;;;;4412224;32;20795;-75
2023/04/28 03:36:52;;;;;;;0.60;0.60;;;6.20;99.90;;;;;;4411909;32;20146;-76
2023/04/28 03:39:18;;;;;;;1.17;0.75;;;6.20;99.90;;;;;;4412886;32;20073;-73
2023/04/28 03:41:43;;;;;;;0.50;0.50;;;6.20;99.90;;;;;;4412260;32;20073;-75
2023/04/28 03:44:09;;;;;;;0.90;0.85;;;6.30;99.90;;;;;;4412749;32;20453;-74
2023/04/28 03:46:34;;;;;;;0.45;0.45;;;6.30;99.90;;;;;;4412220;32;20081;-76
2023/04/28 03:49:01;;;;;;;1.75;0.98;;;6.30;99.90;;;;;;4412526;32;20136;-76
2023/04/28 03:51:28;;;;;;;2.03;0.90;;;6.40;99.90;;;;;;4412386;32;20102;-76
2023/04/28 03:53:54;;;;;;;1.25;0.73;;;6.30;99.90;;;;;;4411387;32;20316;-73
2023/04/28 03:56:19;;;;;;;4.47;1.30;;;6.20;99.90;;;;;;4411975;32;20131;-75
2023/04/28 03:58:45;;;;;;;2.20;1.67;;;6.10;99.90;;;;;;4411265;32;20081;-74
2023/04/28 04:01:11;;;;;;;2.90;1.85;;;6.10;99.90;;;;;;4413286;32;20097;-75
2023/04/28 04:03:36;;;;;;;0.62;0.62;;;6.10;99.90;;;;;;4413178;32;20077;-75
2023/04/28 04:06:02;;;;;;;0.32;0.32;;;6.20;99.90;;;;;;4417251;32;20082;-74
2023/04/28 04:08:28;;;;;;;1.10;1.02;;;6.20;99.90;;;;;;4414099;32;20069;-75
2023/04/28 04:10:54;;;;;;;1.10;0.55;;;6.20;99.90;;;;;;4414354;32;20419;-75
2023/04/28 04:13:20;;;;;;;0.60;0.60;;;6.10;99.90;;;;;;4413899;32;20257;-75
2023/04/28 04:15:46;;;;;;;6.47;1.62;;;6.00;99.90;;;;;;4413505;32;20120;-75
2023/04/28 04:18:12;;;;;;;0.80;0.80;;;6.00;99.90;;;;;;4414365;32;20081;-73
2023/04/28 04:20:37;;;;;;;0.70;0.70;;;6.00;99.90;;;;;;4414465;32;20077;-75
2023/04/28 04:23:03;;;;;;;0.45;0.45;;;6.00;99.90;;;;;;4408066;32;20644;-75
2023/04/28 04:25:29;;;;;;;0.30;0.30;;;6.20;99.90;;;;;;4414814;32;20085;-76
2023/04/28 04:27:54;;;;;;;0.40;0.40;;;6.20;99.90;;;;;;4413586;32;20081;-76
2023/04/28 04:30:20;;;;;;;0.70;0.70;;;6.20;99.90;;;;;;4415566;32;20573;-76
2023/04/28 04:32:46;;;;;;;0.50;0.50;;;6.20;99.90;;;;;;4414081;32;20077;-75
2023/04/28 04:35:11;;;;;;;2.00;0.62;;;6.30;99.90;;;;;;4412881;32;20105;-76
2023/04/28 04:37:37;;;;;;;2.50;1.67;;;6.30;99.90;;;;;;4413761;32;20081;-73
2023/04/28 04:40:03;;;;;;;0.43;0.43;;;6.30;99.90;;;;;;4414539;32;20085;-75
2023/04/28 04:42:28;;;;;;;0.40;0.40;;;6.40;99.90;;;;;;4415318;32;20070;-75
2023/04/28 04:44:54;;;;;;;0.40;0.40;;;6.50;99.90;;;;;;4413031;32;20089;-75
2023/04/28 04:47:20;;;;;;;1.05;1.05;;;6.50;99.90;;;;;;4415726;32;20165;-75
2023/04/28 04:49:46;;;;;;;0.30;0.30;;;6.50;99.90;;;;;;4412966;32;20095;-75
2023/04/28 04:52:11;;;;;;;1.58;1.40;;;6.50;99.90;;;;;;4414405;32;20086;-76
2023/04/28 04:54:37;;;;;;;3.17;1.75;;;6.50;99.90;;;;;;4413716;32;20139;-75
2023/04/28 04:57:03;;;;;;;0.30;0.30;;;6.60;99.90;;;;;;4417195;32;20069;-76
2023/04/28 04:59:28;;;;;;;0.70;0.70;;;6.70;99.90;;;;;;4413176;32;20128;-76
2023/04/28 05:01:54;;;;;;;6.97;1.02;;;6.80;99.90;;;;;;4410429;32;20129;-75
2023/04/28 05:04:19;;;;;;;0.52;0.52;;;6.90;99.90;;;;;;4410600;32;20093;-76
2023/04/28 05:06:45;;;;;;;0.62;0.62;;;7.00;99.90;;;;;;4411782;32;20082;-74
2023/04/28 05:09:10;;;;;;;0.62;0.62;;;7.00;99.90;;;;;;4409486;32;20069;-73
2023/04/28 05:11:36;;;;;;;0.45;0.45;;;7.10;99.90;;;;;;4407131;32;20106;-76
2023/04/28 05:14:01;;;;;;;0.77;0.75;;;7.10;99.90;;;;;;4408260;32;20085;-75
2023/04/28 05:16:27;;;;;;;0.35;0.35;;;7.10;99.90;;;;;;4407905;32;20081;-74
2023/04/28 05:18:52;;;;;;;1.20;0.77;;;7.20;99.90;;;;;;4398849;32;20106;-75
2023/04/28 05:21:18;;;;;;;1.08;0.55;;;7.30;99.90;;;;;;4408665;32;20093;-74
2023/04/28 05:23:43;;;;;;;2.05;1.33;;;7.30;99.90;;;;;;4408233;32;20126;-75
2023/04/28 05:26:09;;;;;;;0.40;0.40;;;7.40;99.90;;;;;;4404468;32;20118;-75
2023/04/28 05:28:36;;;;;;;2.37;1.25;;;7.60;99.90;;;;;;4395928;32;20091;-74
2023/04/28 05:31:02;;;;;;;0.47;0.47;;;7.70;99.90;;;;;;4395709;32;20186;-72
2023/04/28 05:33:28;;;;;;;1.50;0.55;;;7.70;99.90;;;;;;4409523;32;20204;-74
2023/04/28 05:35:55;;;;;;;1.02;0.95;;;7.80;99.90;;;;;;4412563;32;20077;-74
2023/04/28 05:38:20;;;;;;;0.40;0.40;;;7.90;99.90;;;;;;4418097;32;20101;-72
2023/04/28 05:40:47;;;;;;;3.12;0.95;;;8.00;99.90;;;;;;4416199;32;20122;-73
2023/04/28 05:43:13;;;;;;;0.62;0.62;;;8.10;99.90;;;;;;4426249;26;20093;-65
2023/04/28 05:45:39;;;;;;;2.15;1.67;;;8.20;99.90;;;;;;4394992;32;20161;-66
2023/04/28 05:48:05;;;;;;;16.58;2.25;;;8.30;99.90;;;;;;4413229;32;20423;-66
2023/04/28 05:50:31;;;;;;;0.47;0.47;;;8.30;99.90;;;;;;4410773;32;20549;-66
2023/04/28 05:52:56;;;;;;;0.98;0.75;;;8.50;99.90;;;;;;4413086;32;20076;-65
2023/04/28 05:55:22;;;;;;;0.40;0.40;;;8.60;99.90;;;;;;4405643;32;20109;-66
2023/04/28 05:57:48;;;;;;;0.40;0.40;;;8.70;99.90;;;;;;4404514;32;20094;-66
2023/04/28 06:00:14;;;;;;;0.40;0.40;;;8.80;99.90;;;;;;4392924;32;21687;-67
2023/04/28 06:02:39;;;;;;;15.45;2.97;;;8.80;99.90;;;;;;4391486;32;20096;-67
2023/04/28 06:05:06;;;;;;;0.45;0.45;;;8.80;99.90;;;;;;4391214;32;20077;-67
2023/04/28 06:07:31;;;;;;;0.80;0.80;;;8.80;99.90;;;;;;4391755;32;20090;-67
2023/04/28 06:09:57;;;;;;;0.47;0.47;;;8.90;99.90;;;;;;4404557;32;20065;-67
2023/04/28 06:12:23;;;;;;;0.50;0.50;;;9.00;99.90;;;;;;4399404;32;20102;-67
2023/04/28 06:14:54;;;;;;;1.30;0.85;;;9.00;99.90;;;;;;4409061;32;20186;-67
2023/04/28 06:17:20;;;;;;;0.35;0.35;;;9.00;99.90;;;;;;4403358;32;20090;-67
2023/04/28 06:19:45;;;;;;;18.55;3.20;;;9.10;99.90;;;;;;4405623;32;21147;-67
2023/04/28 06:22:11;;;;;;;5.82;0.62;;;9.10;99.90;;;;;;4404750;32;20753;-68
2023/04/28 06:24:37;;;;;;;0.40;0.40;;;9.00;99.90;;;;;;4399389;32;20176;-67
2023/04/28 06:27:02;;;;;;;0.40;0.40;;;9.00;99.90;;;;;;4395319;32;20093;-67
2023/04/28 06:29:29;;;;;;;0.40;0.40;;;9.00;99.90;;;;;;4394787;32;20388;-67
2023/04/28 06:31:56;;;;;;;0.40;0.40;;;9.00;99.90;;;;;;4401108;32;20494;-67
2023/04/28 06:34:27;;;;;;;0.60;0.60;;;9.10;99.90;;;;;;4400274;32;20093;-68
2023/04/28 06:36:54;;;;;;;0.50;0.50;;;9.00;99.90;;;;;;4403166;32;20441;-67
2023/04/28 06:39:20;;;;;;;1.05;0.90;;;9.10;99.90;;;;;;4399363;32;20201;-70
2023/04/28 06:41:47;;;;;;;0.50;0.50;;;9.20;99.90;;;;;;4398409;32;20104;-68
2023/04/28 06:44:12;;;;;;;0.65;0.50;;;9.20;99.90;;;;;;4393345;32;20403;-67
2023/04/28 06:46:38;;;;;;;2.00;0.70;;;9.20;99.90;;;;;;4395400;32;20102;-68
2023/04/28 06:49:03;;;;;;;1.75;0.98;;;9.30;99.90;;;;;;4392128;32;20584;-68
2023/04/28 06:51:31;;;;;;;0.40;0.40;;;9.40;99.90;;;;;;4397618;32;20156;-69
2023/04/28 06:53:57;;;;;;;0.35;0.35;;;9.40;99.90;;;;;;4394169;32;20126;-68
2023/04/28 06:56:23;;;;;;;0.47;0.47;;;9.60;99.90;;;;;;4394830;32;20078;-68
2023/04/28 06:58:49;;;;;;;1.48;0.60;;;9.80;99.90;;;;;;4390945;32;20097;-69
2023/04/28 07:01:14;;;;;;;0.50;0.50;;;10.00;99.90;;;;;;4388447;32;20116;-69
2023/04/28 07:03:40;;;;;;;0.70;0.70;;;10.10;99.90;;;;;;4397780;32;20434;-67
2023/04/28 07:06:05;;;;;;;2.78;0.75;;;10.20;99.90;;;;;;4394603;32;20524;-66
2023/04/28 07:08:31;;;;;;;4.47;0.80;;;10.30;99.90;;;;;;4395129;32;20097;-68
2023/04/28 07:10:56;;;;;;;0.75;0.75;;;10.30;99.90;;;;;;4394187;32;20116;-67
2023/04/28 07:13:22;;;;;;;4.18;0.85;;;10.40;99.90;;;;;;4389662;32;20088;-69
2023/04/28 07:15:48;;;;;;;11.12;0.70;;;10.50;99.90;;;;;;4403465;32;20159;-68
2023/04/28 07:18:14;;;;;;;13.48;2.25;;;10.60;99.90;;;;;;4396731;32;20078;-67
2023/04/28 07:20:39;;;;;;;0.70;0.70;;;10.60;99.90;;;;;;4377792;32;20096;-69
2023/04/28 07:23:05;;;;;;;0.80;0.80;;;10.70;99.90;;;;;;4393331;32;20516;-67
2023/04/28 07:25:31;;;;;;;1.30;0.85;;;10.90;99.90;;;;;;4397562;32;20459;-68
2023/04/28 07:27:56;;;;;;;0.32;0.32;;;10.90;99.90;;;;;;4394455;32;20189;-67
2023/04/28 07:30:22;;;;;;;0.88;0.70;;;10.90;99.90;;;;;;4391256;32;20097;-69
2023/04/28 07:32:47;;;;;;;0.50;0.50;;;11.10;99.90;;;;;;4379289;32;20093;-65
2023/04/28 07:35:13;;;;;;;0.70;0.70;;;11.10;99.90;;;;;;4395957;32;20481;-67
2023/04/28 07:37:38;;;;;;;4.55;0.98;;;11.20;99.90;;;;;;4399682;32;20089;-68
2023/04/28 07:40:05;;;;;;;0.30;0.30;;;11.10;99.90;;;;;;4392386;32;20564;-67
2023/04/28 07:42:31;;;;;;;0.40;0.40;;;11.20;99.90;;;;;;4392404;32;20185;-68
2023/04/28 07:44:57;;;;;;;0.80;0.70;;;11.20;99.90;;;;;;4399901;32;20596;-69
2023/04/28 07:47:23;;;;;;;0.65;0.65;;;11.30;99.90;;;;;;4376830;32;20077;-68
2023/04/28 07:49:49;;;;;;;0.62;0.62;;;11.40;99.90;;;;;;4380156;32;20121;-69
2023/04/28 07:52:15;;;;;;;0.73;0.73;;;11.60;99.90;;;;;;4380334;32;20148;-67
2023/04/28 07:54:40;;;;;;;0.40;0.40;;;11.60;99.90;;;;;;4377305;32;20118;-69
2023/04/28 07:57:06;;;;;;;3.00;0.60;;;11.70;99.90;;;;;;4373136;32;20142;-68
2023/04/28 07:59:33;;;;;;;0.82;0.82;;;11.90;99.90;;;;;;4389188;32;20525;-68
2023/04/28 08:01:59;;;;;;;0.70;0.70;;;12.10;99.90;;;;;;4385426;32;20088;-68
2023/04/28 08:04:24;;;;;;;0.50;0.50;;;12.20;99.90;;;;;;4377637;32;20685;-68
2023/04/28 08:06:51;;;;;;;0.82;0.65;;;12.30;99.90;;;;;;4388427;32;20073;-68
2023/04/28 08:09:17;;;;;;;0.73;0.73;;;12.50;99.90;;;;;;4388084;32;20513;-68
2023/04/28 08:11:42;;;;;;;0.32;0.32;;;12.50;99.90;;;;;;4386367;32;20179;-68
2023/04/28 08:14:08;;;;;;;0.57;0.57;;;12.70;99.90;;;;;;4392769;32;20356;-68
2023/04/28 08:16:37;;;;;;;0.40;0.40;;;12.70;99.90;;;;;;4385784;32;20138;-67
2023/04/28 08:19:02;;;;;;;0.50;0.50;;;12.70;99.90;;;;;;4399617;32;20501;-68
2023/04/28 08:21:28;;;;;;;0.52;0.52;;;12.80;99.80;;;;;;4392279;32;20085;-67
2023/04/28 08:23:53;;;;;;;3.47;0.68;;;12.80;99.30;;;;;;4391078;32;20101;-68
2023/04/28 08:26:19;;;;;;;0.35;0.35;;;12.90;99.40;;;;;;4384918;32;20148;-67
2023/04/28 08:28:44;;;;;;;0.40;0.40;;;13.00;98.40;;;;;;4377944;32;20225;-67
2023/04/28 08:31:10;;;;;;;0.43;0.43;;;12.90;98.50;;;;;;4376220;32;20710;-67
2023/04/28 08:33:35;;;;;;;0.60;0.60;;;13.00;98.70;;;;;;4365760;32;20105;-67
2023/04/28 08:36:01;;;;;;;1.17;1.02;;;13.00;98.20;;;;;;4375491;32;21445;-67
2023/04/28 08:38:27;;;;;;;0.47;0.47;;;13.10;98.00;;;;;;4370435;32;21292;-67
2023/04/28 08:40:53;;;;;;;20.62;1.30;;;13.20;97.90;;;;;;4371465;32;20165;-67
2023/04/28 08:43:20;;;;;;;0.40;0.40;;;13.30;98.20;;;;;;4357922;32;20085;-68
2023/04/28 08:45:45;;;;;;;0.43;0.43;;;13.30;98.90;;;;;;4370016;32;20701;-68
2023/04/28 08:48:18;;;;;;;0.45;0.45;;;13.40;97.60;;;;;;4369481;32;20093;-67
2023/04/28 08:50:48;;;;;;;2.33;1.60;;;13.40;97.60;;;;;;4369323;32;20841;-67
2023/04/28 08:53:20;;;;;;;1.10;1.00;;;13.30;98.30;;;;;;4375859;32;20107;-67
2023/04/28 08:55:46;;;;;;;0.40;0.40;;;13.50;97.90;;;;;;4372991;32;20934;-68
2023/04/28 08:58:12;;;;;;;0.70;0.70;;;13.80;98.00;;;;;;4371516;32;20119;-68
2023/04/28 09:00:38;;;;;;;2.00;1.30;;;13.80;97.90;;;;;;4374372;32;20118;-67
2023/04/28 09:03:05;;;;;;;0.60;0.60;;;14.00;97.40;;;;;;4376342;32;20154;-69
2023/04/28 09:05:30;;;;;;;26.40;2.87;;;14.10;97.80;;;;;;4382787;32;20085;-68
2023/04/28 09:07:56;;;;;;;0.40;0.40;;;14.00;96.70;;;;;;4371801;32;20094;-68
2023/04/28 09:10:24;;;;;;;1.85;1.02;;;14.10;97.20;;;;;;4367199;32;20133;-67
2023/04/28 09:12:51;;;;;;;2.17;1.02;;;14.10;97.20;;;;;;4369515;32;20092;-68
2023/04/28 09:15:34;;;;;;;3.90;0.62;;;14.10;97.00;;;;;;4373199;32;20090;-68
2023/04/28 09:18:01;;;;;;;0.50;0.50;;;14.20;97.10;;;;;;4377185;32;20742;-68
2023/04/28 09:20:28;;;;;;;1.58;0.60;;;14.30;98.00;;;;;;4378445;32;20279;-67
2023/04/28 09:22:55;;;;;;;0.82;0.60;;;14.60;97.20;;;;;;4383619;32;20158;-67
2023/04/28 09:25:22;;;;;;;0.40;0.40;;;14.70;96.90;;;;;;4371282;32;21219;-68
2023/04/28 09:27:48;;;;;;;1.65;0.73;;;14.80;96.70;;;;;;4375842;32;20114;-67
2023/04/28 09:30:14;;;;;;;0.55;0.55;;;14.80;96.90;;;;;;4382250;32;20361;-68
2023/04/28 09:32:40;;;;;;;1.23;0.65;;;14.60;96.50;;;;;;4377256;32;20211;-69
2023/04/28 09:35:07;;;;;;;0.40;0.40;;;14.50;96.60;;;;;;4383624;32;20219;-69
2023/04/28 09:37:33;;;;;;;0.60;0.60;;;14.70;97.20;;;;;;4364498;32;20417;-67
2023/04/28 09:40:09;;;;;;;0.50;0.50;;;14.80;96.30;;;;;;4373404;32;20600;-69
2023/04/28 09:42:40;;;;;;;0.40;0.40;;;14.90;96.00;;;;;;4372039;32;20100;-69
2023/04/28 09:45:07;;;;;;;1.50;0.80;;;15.20;95.70;;;;;;4389750;32;20090;-68
2023/04/28 09:47:36;;;;;;;1.90;0.80;;;15.40;95.70;;;;;;4397581;32;20108;-68
2023/04/28 09:50:04;;;;;;;0.70;0.70;;;15.50;95.30;;;;;;4407984;32;20073;-68
2023/04/28 09:52:29;;;;;;;0.75;0.62;;;15.40;95.20;;;;;;4399786;32;20691;-68
2023/04/28 09:54:56;;;;;;;0.75;0.65;;;15.60;94.70;;;;;;4390389;32;20077;-68
2023/04/28 09:57:22;;;;;;;0.62;0.62;;;15.70;94.30;;;;;;4392859;32;20081;-68
2023/04/28 09:59:50;;;;;;;6.97;2.15;;;15.60;93.90;;;;;;4398155;32;20156;-68
2023/04/28 10:02:18;;;;;;;0.60;0.60;;;15.70;93.90;;;;;;4396926;32;20877;-68
2023/04/28 10:04:46;;;;;;;0.62;0.62;;;15.70;93.80;;;;;;4405989;32;20573;-68
2023/04/28 10:07:13;;;;;;;1.98;1.10;;;15.80;94.90;;;;;;4404992;32;20095;-68
2023/04/28 10:09:43;;;;;;;0.80;0.77;;;15.90;93.40;;;;;;4393507;32;20112;-67
2023/04/28 10:12:10;;;;;;;0.95;0.75;;;15.80;93.70;;;;;;4392088;32;21424;-67
2023/04/28 10:14:36;;;;;;;0.88;0.40;;;16.20;94.00;;;;;;4388640;32;21119;-68
2023/04/28 10:17:05;;;;;;;0.60;0.60;;;16.40;94.00;;;;;;4401628;32;20600;-68
2023/04/28 10:19:31;;;;;;;2.47;1.45;;;16.60;93.10;;;;;;4399125;32;20504;-66
2023/04/28 10:22:06;;;;;;;0.60;0.60;;;16.80;93.00;;;;;;4404337;32;20105;-66
2023/04/28 10:24:32;;;;;;;1.02;0.90;;;16.70;93.10;;;;;;4404558;32;20379;-66
2023/04/28 10:27:05;;;;;;;1.55;1.05;;;16.90;92.70;;;;;;4412391;32;20083;-67
2023/04/28 10:29:32;;;;;;;0.68;0.68;;;17.30;91.60;;;;;;4406885;32;20829;-67
2023/04/28 10:32:16;;;;;;;0.80;0.73;;;17.20;91.60;;;;;;4406733;32;20097;-65
2023/04/28 10:34:42;;;;;;;0.70;0.62;;;17.20;91.70;;;;;;4399359;32;20118;-65
2023/04/28 10:37:08;;;;;;;0.50;0.50;;;17.40;92.40;;;;;;4416794;32;20342;-65
2023/04/28 10:39:34;;;;;;;0.50;0.50;;;17.70;92.10;;;;;;4412924;32;20093;-67
2023/04/28 10:42:00;;;;;;;0.60;0.60;;;18.20;91.40;;;;;;4410065;32;20257;-66
2023/04/28 10:44:29;;;;;;;0.75;0.75;;;18.50;90.10;;;;;;4411807;32;20089;-66
2023/04/28 10:47:06;;;;;;;5.00;1.77;;;18.70;90.80;;;;;;4408242;32;20458;-66
2023/04/28 10:50:06;;;;;;;1.10;0.70;;;18.60;90.20;;;;;;4406876;32;20121;-66
2023/04/28 10:52:39;;;;;;;0.60;0.60;;;18.10;90.40;;;;;;4392603;32;20596;-66
2023/04/28 10:55:27;;;;;;;2.83;1.00;;;17.80;90.40;;;;;;4406188;32;20144;-65
2023/04/28 10:58:15;;;;;;;0.50;0.50;;;17.80;90.50;;;;;;4377919;32;20184;-65
2023/04/28 11:00:44;;;;;;;0.77;0.77;;;17.80;90.80;;;;;;4380794;32;20089;-66
2023/04/28 11:03:41;;;;;;;0.57;0.57;;;17.90;90.50;;;;;;4398005;32;20089;-66
2023/04/28 11:06:25;;;;;;;0.40;0.40;;;17.70;90.70;;;;;;4385437;32;20313;-65
2023/04/28 11:09:00;;;;;;;0.40;0.40;;;17.70;90.50;;;;;;4370034;32;20395;-66
2023/04/28 11:11:28;;;;;;;0.80;0.80;;;17.80;90.40;;;;;;4391739;32;20627;-65
2023/04/28 11:14:18;;;;;;;0.73;0.73;;;17.50;90.90;;;;;;4385240;32;20094;-63
2023/04/28 11:16:49;;;;;;;0.60;0.60;;;17.30;90.80;;;;;;4390821;32;20323;-63
2023/04/28 11:19:18;;;;;;;4.87;1.95;;;17.30;91.20;;;;;;4403214;32;20179;-63
2023/04/28 11:21:45;;;;;;;0.70;0.70;;;17.20;91.60;;;;;;4395668;32;20109;-63
2023/04/28 11:24:11;;;;;;;0.55;0.55;;;17.30;91.30;;;;;;4395369;32;20097;-63
2023/04/28 11:26:38;;;;;;;0.82;0.57;;;17.50;91.40;;;;;;4390703;32;20086;-63
2023/04/28 11:29:04;;;;;;;1.23;1.02;;;17.40;91.50;;;;;;4397817;32;20166;-64
2023/04/28 11:31:30;;;;;;;1.45;0.73;;;17.50;91.50;;;;;;4404709;32;20600;-62
2023/04/28 11:33:59;;;;;;;0.50;0.50;;;17.50;90.60;;;;;;4382894;32;20073;-63
2023/04/28 11:36:28;;;;;;;0.45;0.45;;;17.40;91.70;;;;;;4393713;32;21644;-70
2023/04/28 11:38:55;;;;;;;0.50;0.50;;;17.50;90.80;;;;;;4387905;32;20081;-65
2023/04/28 11:41:22;;;;;;;0.60;0.60;;;17.50;91.10;;;;;;4389972;32;20482;-64
2023/04/28 11:43:47;;;;;;;1.55;1.40;;;17.30;91.00;;;;;;4375265;32;93746;-65
2023/04/28 11:46:18;;;;;;;2.10;1.15;;;17.00;91.50;;;;;;4389905;32;20435;-64
2023/04/28 11:48:44;;;;;;;;;;;17.00;92.60;;;;;;4385687;32;20879;-65
2023/04/28 11:51:26;;;;;;;1.20;1.10;;;17.20;92.70;;;;;;4387228;32;19957;-64
2023/04/28 11:53:52;;;;;;;1.27;0.90;;;17.30;92.30;;;;;;4391865;32;20480;-65
2023/04/28 11:56:17;;;;;;;1.75;0.77;;;17.50;92.40;;;;;;4392644;32;20105;-65
2023/04/28 11:58:42;;;;;;;0.68;0.68;;;17.80;91.50;;;;;;4398496;32;20112;-65
2023/04/28 12:01:09;;;;;;;0.68;0.60;;;18.00;91.40;;;;;;4399552;32;20307;-66
2023/04/28 12:03:43;;;;;;;0.65;0.65;;;18.30;91.10;;;;;;4392425;32;20175;-65
2023/04/28 12:06:09;;;;;;;0.80;0.80;;;19.00;89.20;;;;;;4380886;32;20097;-66
2023/04/28 12:08:36;;;;;;;0.50;0.50;;;19.10;88.70;;;;;;4384778;32;20494;-66
2023/04/28 12:11:11;;;;;;;0.73;0.73;;;19.60;90.80;;;;;;4397633;32;21181;-66
2023/04/28 12:13:37;;;;;;;3.33;0.88;;;19.70;87.20;;;;;;4372575;32;20093;-66
2023/04/28 12:16:05;;;;;;;2.25;1.12;;;19.80;88.30;;;;;;4394731;32;20226;-66
2023/04/28 12:18:31;;;;;;;0.45;0.45;;;20.10;89.10;;;;;;4403082;32;20281;-66
2023/04/28 12:20:57;;;;;;;2.58;0.60;;;20.10;87.10;;;;;;4396425;32;20246;-65
2023/04/28 12:23:40;;;;;;;4.72;1.48;;;20.20;87.50;;;;;;4388961;32;20120;-66
2023/04/28 12:26:07;;;;;;;0.55;0.55;;;19.80;86.90;;;;;;4386898;32;20152;-65
2023/04/28 12:28:39;;;;;;;0.70;0.70;;;19.20;87.20;;;;;;4395480;32;20085;-62
2023/04/28 12:31:07;;;;;;;0.90;0.75;;;19.20;87.30;;;;;;4376485;32;20369;-65
2023/04/28 12:33:36;;;;;;;0.75;0.75;;;18.90;88.20;;;;;;4393451;32;20097;-64
2023/04/28 12:36:02;;;;;;;0.70;0.70;;;18.90;89.80;;;;;;4381845;32;20132;-66
2023/04/28 12:38:28;;;;;;;0.60;0.60;;;18.90;89.30;;;;;;4401400;32;20498;-66
2023/04/28 12:40:54;;;;;;;11.15;2.25;;;18.90;88.50;;;;;;4409036;32;20456;-66
2023/04/28 12:43:22;;;;;;;0.50;0.50;;;18.50;88.30;;;;;;4399326;32;20247;-66
2023/04/28 12:45:49;;;;;;;0.62;0.62;;;18.20;90.10;;;;;;4386502;32;20119;-66
2023/04/28 12:48:15;;;;;;;4.20;1.33;;;18.10;90.30;;;;;;4387767;32;20089;-66
2023/04/28 12:50:40;;;;;;;0.80;0.52;;;18.20;89.70;;;;;;4404726;32;20073;-67